Time;durP1;ratioP1;P1;durP2;ratioP2;P2;SDS_P1;SDS_P2;PMS_P1;PMS_P2;Temp;Humidity;BMP_temperature;BMP_pressure;BME280_temperature;BME280_humidity;BME280_pressure;Samples;Min_cycle;Max_cycle;Signal;HPM_P1;HPM_P2
2021/12/04 00:02:05;;;;;;;23.92;12.50;;;2.00;99.90;;;;;;4720494;28;10000518;-82
2021/12/04 00:04:37;;;;;;;19.65;11.80;;;2.00;99.90;;;;;;5080828;28;20028;-81
2021/12/04 00:07:05;;;;;;;19.27;11.95;;;2.00;99.90;;;;;;5103408;28;20535;-82
2021/12/04 00:09:32;;;;;;;19.77;11.85;;;2.00;99.90;;;;;;5080793;28;20475;-81
2021/12/04 00:14:24;;;;;;;20.42;12.73;;;2.00;99.90;;;;;;5075637;28;20055;-82
2021/12/04 00:16:50;;;;;;;21.73;12.43;;;2.00;99.90;;;;;;5080513;28;20048;-81
2021/12/04 00:19:15;;;;;;;21.70;12.23;;;2.00;99.90;;;;;;5074077;28;20078;-82
2021/12/04 00:21:41;;;;;;;18.95;12.13;;;2.00;99.90;;;;;;5082184;28;20503;-81
2021/12/04 00:24:07;;;;;;;20.63;12.57;;;2.00;99.90;;;;;;5087272;28;20025;-82
2021/12/04 00:26:33;;;;;;;18.20;12.15;;;2.00;99.90;;;;;;5076393;28;20031;-81
2021/12/04 00:28:58;;;;;;;19.73;12.10;;;2.00;99.90;;;;;;5084761;28;20024;-82
2021/12/04 00:31:24;;;;;;;20.85;12.45;;;2.00;99.90;;;;;;5082394;28;20032;-81
2021/12/04 00:33:50;;;;;;;23.40;12.93;;;2.00;99.90;;;;;;5103731;28;20027;-81
2021/12/04 00:49:58;;;;;;;23.67;13.07;;;1.90;99.90;;;;;;5096203;28;20459;-81
2021/12/04 00:52:24;;;;;;;23.98;14.05;;;1.90;99.90;;;;;;5097749;28;20087;-81
2021/12/04 00:54:49;;;;;;;23.90;13.35;;;1.90;99.90;;;;;;5096720;28;20039;-81
2021/12/04 00:57:15;;;;;;;22.65;13.88;;;1.90;99.90;;;;;;5095479;28;20478;-81
2021/12/04 00:59:41;;;;;;;23.73;14.15;;;1.90;99.90;;;;;;5100967;28;20066;-80
2021/12/04 01:02:07;;;;;;;23.83;14.43;;;1.90;99.90;;;;;;5098887;28;20470;-78
2021/12/04 01:04:32;;;;;;;27.33;14.85;;;1.90;99.90;;;;;;5099654;28;20020;-80
2021/12/04 01:06:58;;;;;;;25.83;14.18;;;1.90;99.90;;;;;;5101735;28;20513;-80
2021/12/04 01:09:25;;;;;;;24.38;13.68;;;1.90;99.90;;;;;;5099894;28;20028;-81
2021/12/04 01:11:52;;;;;;;23.00;13.93;;;1.90;99.90;;;;;;5108826;28;20035;-81
2021/12/04 01:14:20;;;;;;;20.65;14.20;;;1.90;99.90;;;;;;5096679;28;20422;-80
2021/12/04 01:16:46;;;;;;;23.25;13.55;;;1.90;99.90;;;;;;5094998;28;20054;-81
2021/12/04 01:19:14;;;;;;;25.58;13.90;;;1.90;99.90;;;;;;5093952;28;20036;-80
2021/12/04 01:21:40;;;;;;;24.05;13.88;;;1.90;99.90;;;;;;5095527;27;20085;-81
2021/12/04 01:24:06;;;;;;;22.67;12.75;;;1.90;99.90;;;;;;5096492;28;20048;-81
2021/12/04 01:26:33;;;;;;;25.63;13.98;;;1.90;99.90;;;;;;5097700;28;20509;-81
2021/12/04 01:28:58;;;;;;;21.85;13.35;;;1.90;99.90;;;;;;5096216;28;20034;-81
2021/12/04 01:31:24;;;;;;;21.55;13.60;;;1.90;99.90;;;;;;5094153;28;20114;-80
2021/12/04 01:33:50;;;;;;;22.63;14.05;;;1.90;99.90;;;;;;5096033;28;20125;-82
2021/12/04 01:36:16;;;;;;;23.77;13.60;;;1.90;99.90;;;;;;5102774;28;20571;-81
2021/12/04 01:38:41;;;;;;;19.35;13.43;;;1.90;99.90;;;;;;5104959;28;20023;-81
2021/12/04 01:41:07;;;;;;;18.95;13.18;;;1.90;99.90;;;;;;5102360;28;20032;-81
2021/12/04 01:43:33;;;;;;;20.02;13.63;;;1.90;99.90;;;;;;5095700;28;20238;-81
2021/12/04 01:45:59;;;;;;;21.92;13.68;;;1.90;99.90;;;;;;5099708;28;20049;-81
2021/12/04 01:48:25;;;;;;;20.00;13.45;;;1.90;99.90;;;;;;5097088;28;20031;-82
2021/12/04 01:50:52;;;;;;;26.23;13.88;;;1.90;99.90;;;;;;5099519;28;20533;-81
2021/12/04 01:53:18;;;;;;;23.95;13.90;;;1.90;99.90;;;;;;5100242;28;20079;-82
2021/12/04 01:55:44;;;;;;;22.42;14.65;;;1.90;99.90;;;;;;5099513;28;20062;-82
2021/12/04 01:58:11;;;;;;;23.45;14.23;;;1.90;99.90;;;;;;5101426;28;20464;-81
2021/12/04 02:00:40;;;;;;;22.77;15.23;;;1.90;99.90;;;;;;5092708;28;20093;-81
2021/12/04 02:03:08;;;;;;;26.10;14.25;;;1.90;99.90;;;;;;5098153;28;20085;-79
2021/12/04 02:05:38;;;;;;;21.80;13.90;;;1.90;99.90;;;;;;5097330;28;20261;-81
2021/12/04 02:08:08;;;;;;;22.10;13.63;;;1.90;99.90;;;;;;5095942;28;20087;-82
2021/12/04 02:10:35;;;;;;;23.02;13.45;;;1.90;99.90;;;;;;5097995;28;20035;-82
2021/12/04 02:13:01;;;;;;;19.33;12.70;;;1.90;99.90;;;;;;5095694;28;20518;-81
2021/12/04 02:15:27;;;;;;;23.42;13.48;;;1.90;99.90;;;;;;5093108;27;20119;-81
2021/12/04 02:17:52;;;;;;;20.65;13.23;;;1.90;99.90;;;;;;5095794;28;20089;-81
2021/12/04 02:20:22;;;;;;;18.55;12.75;;;2.00;99.90;;;;;;5105263;28;20100;-81
2021/12/04 02:22:49;;;;;;;19.98;12.93;;;2.00;99.90;;;;;;5096104;28;20396;-81
2021/12/04 02:25:15;;;;;;;22.42;13.60;;;2.00;99.90;;;;;;5099013;28;20116;-81
2021/12/04 02:27:42;;;;;;;19.35;12.15;;;2.00;99.90;;;;;;5099598;28;20032;-81
2021/12/04 02:30:12;;;;;;;18.42;12.40;;;2.00;99.90;;;;;;5098937;28;20043;-81
2021/12/04 02:32:39;;;;;;;21.13;12.93;;;2.00;99.90;;;;;;5087497;28;20052;-81
2021/12/04 02:35:06;;;;;;;17.52;12.63;;;2.00;99.90;;;;;;5074168;28;20025;-81
2021/12/04 02:37:33;;;;;;;20.80;13.55;;;2.00;99.90;;;;;;5076082;28;20040;-81
2021/12/04 02:40:00;;;;;;;18.42;13.25;;;2.00;99.90;;;;;;5089778;28;20106;-82
2021/12/04 02:42:29;;;;;;;25.10;13.50;;;2.00;99.90;;;;;;5074407;28;20105;-81
2021/12/04 02:44:55;;;;;;;19.15;13.43;;;2.00;99.90;;;;;;5080835;28;20518;-82
2021/12/04 02:47:21;;;;;;;20.10;13.48;;;2.00;99.90;;;;;;5073803;28;20040;-81
2021/12/04 02:49:47;;;;;;;20.83;13.07;;;2.00;99.90;;;;;;5082713;28;20028;-82
2021/12/04 02:52:14;;;;;;;22.02;13.63;;;2.00;99.90;;;;;;5074123;28;20036;-82
2021/12/04 02:54:41;;;;;;;22.17;14.25;;;2.00;99.90;;;;;;5084324;28;20039;-82
2021/12/04 02:57:09;;;;;;;29.75;14.70;;;2.00;99.90;;;;;;5078369;28;20040;-82
2021/12/04 02:59:38;;;;;;;22.45;13.70;;;2.00;99.90;;;;;;5074495;28;20042;-81
2021/12/04 03:02:06;;;;;;;23.83;13.80;;;2.00;99.90;;;;;;5070406;28;20024;-81
2021/12/04 03:04:31;;;;;;;19.30;13.05;;;2.00;99.90;;;;;;5081555;28;20050;-81
2021/12/04 03:06:57;;;;;;;21.63;14.38;;;2.00;99.90;;;;;;5073185;28;20032;-82
2021/12/04 03:09:23;;;;;;;21.13;14.48;;;2.00;99.90;;;;;;5086799;28;20051;-82
2021/12/04 03:11:49;;;;;;;23.10;14.25;;;2.00;99.90;;;;;;5080271;28;20034;-81
2021/12/04 03:14:17;;;;;;;20.42;13.77;;;2.00;99.90;;;;;;5084213;28;20140;-82
2021/12/04 03:16:43;;;;;;;22.42;15.05;;;2.10;99.90;;;;;;5074210;28;20038;-82
2021/12/04 03:19:09;;;;;;;23.23;14.48;;;2.00;99.90;;;;;;5077072;28;20147;-81
2021/12/04 03:21:37;;;;;;;24.70;13.95;;;2.10;99.90;;;;;;5079373;28;20024;-82
2021/12/04 03:24:09;;;;;;;22.50;13.90;;;2.10;99.90;;;;;;5078072;28;20356;-82
2021/12/04 03:26:37;;;;;;;22.33;14.48;;;2.00;99.90;;;;;;5077490;28;20031;-82
2021/12/04 03:29:06;;;;;;;22.10;14.10;;;2.00;99.90;;;;;;5074146;28;20089;-81
2021/12/04 03:42:25;;;;;;;21.80;14.63;;;2.00;99.90;;;;;;5102922;28;20056;-82
2021/12/04 03:44:51;;;;;;;23.38;14.40;;;2.00;99.90;;;;;;5105342;27;20035;-82
2021/12/04 03:47:19;;;;;;;22.95;14.23;;;2.00;99.90;;;;;;5101013;27;20553;-82
2021/12/04 03:49:46;;;;;;;24.67;15.27;;;2.00;99.90;;;;;;5098626;27;20098;-82
2021/12/04 03:52:11;;;;;;;24.38;15.05;;;2.00;99.90;;;;;;5101560;27;20030;-82
2021/12/04 03:54:37;;;;;;;24.10;14.60;;;2.10;99.90;;;;;;5100616;27;20028;-82
2021/12/04 03:57:04;;;;;;;24.38;14.57;;;2.10;99.90;;;;;;5107190;27;20925;-82
2021/12/04 03:59:35;;;;;;;21.63;14.38;;;2.10;99.90;;;;;;5098864;27;20401;-82
2021/12/04 04:02:01;;;;;;;21.75;14.90;;;2.10;99.90;;;;;;5105016;27;20035;-83
2021/12/04 04:04:27;;;;;;;21.52;14.48;;;2.10;99.90;;;;;;5106065;27;20091;-82
2021/12/04 04:06:52;;;;;;;22.67;14.75;;;2.00;99.90;;;;;;5110167;27;20118;-82
2021/12/04 04:09:18;;;;;;;21.75;14.20;;;2.10;99.90;;;;;;5103398;27;20024;-82
2021/12/04 04:11:44;;;;;;;23.85;15.13;;;2.10;99.90;;;;;;5100545;27;20032;-82
2021/12/04 04:14:09;;;;;;;19.73;14.63;;;2.10;99.90;;;;;;5106111;27;20036;-82
2021/12/04 04:16:39;;;;;;;24.13;15.30;;;2.10;99.90;;;;;;5104083;27;20034;-82
2021/12/04 04:19:04;;;;;;;23.45;14.77;;;2.10;99.90;;;;;;5102749;27;20028;-82
2021/12/04 04:21:30;;;;;;;21.60;14.50;;;2.10;99.90;;;;;;5101963;27;20031;-82
2021/12/04 04:23:56;;;;;;;25.92;15.30;;;2.00;99.90;;;;;;5099382;27;20032;-82
2021/12/04 04:26:22;;;;;;;23.13;14.68;;;2.00;99.90;;;;;;5097680;27;20169;-82
2021/12/04 04:28:47;;;;;;;20.70;14.05;;;2.10;99.90;;;;;;5106118;27;20062;-82
2021/12/04 04:31:13;;;;;;;19.67;13.88;;;2.00;99.90;;;;;;5108832;27;20375;-82
2021/12/04 04:33:42;;;;;;;21.10;13.57;;;2.00;99.90;;;;;;5092966;28;20079;-82
2021/12/04 04:58:44;;;;;;;18.73;12.48;;;2.20;99.90;;;;;;5077781;28;20043;-83
2021/12/04 05:14:42;;;;;;;20.13;13.57;;;2.10;99.90;;;;;;5070509;28;20875;-82
2021/12/04 05:17:16;;;;;;;18.88;13.23;;;2.20;99.90;;;;;;5075876;28;20029;-82
2021/12/04 05:19:44;;;;;;;21.88;14.00;;;2.20;99.90;;;;;;5077997;28;20063;-82
2021/12/04 05:22:13;;;;;;;22.02;14.48;;;2.20;99.90;;;;;;5081970;28;20035;-83
2021/12/04 05:24:40;;;;;;;21.17;13.43;;;2.10;99.90;;;;;;5075745;28;20021;-83
2021/12/04 05:27:06;;;;;;;19.45;13.70;;;2.10;99.90;;;;;;5071991;28;20033;-83
2021/12/04 05:29:32;;;;;;;20.95;13.43;;;2.10;99.90;;;;;;5075796;28;20040;-83
2021/12/04 05:31:58;;;;;;;23.17;14.27;;;2.10;99.90;;;;;;5080637;28;20501;-82
2021/12/04 05:34:24;;;;;;;22.27;14.48;;;2.10;99.90;;;;;;5097745;28;20051;-83
2021/12/04 05:36:50;;;;;;;21.85;14.25;;;2.10;99.90;;;;;;5095618;28;20201;-82
2021/12/04 05:39:16;;;;;;;21.67;12.80;;;2.10;99.90;;;;;;5097034;28;20024;-82
2021/12/04 05:41:41;;;;;;;20.60;12.93;;;2.10;99.90;;;;;;5094626;28;20024;-82
2021/12/04 05:44:09;;;;;;;18.25;12.75;;;2.10;99.90;;;;;;5094483;28;20059;-83
2021/12/04 05:46:41;;;;;;;21.45;13.73;;;2.10;99.90;;;;;;5093897;28;20563;-83
2021/12/04 05:49:20;;;;;;;19.70;12.52;;;2.10;99.90;;;;;;5090682;27;20134;-83
2021/12/04 05:57:05;;;;;;;17.35;12.45;;;2.00;99.90;;;;;;5099316;28;20429;-83
2021/12/04 05:59:31;;;;;;;17.75;11.90;;;2.00;99.90;;;;;;5091651;28;20020;-82
2021/12/04 06:01:58;;;;;;;16.95;11.43;;;2.00;99.90;;;;;;5099684;28;20498;-82
2021/12/04 06:04:24;;;;;;;20.25;12.40;;;2.10;99.90;;;;;;5092614;28;20023;-82
2021/12/04 06:06:50;;;;;;;17.88;12.18;;;2.10;99.90;;;;;;5098376;28;20084;-83
2021/12/04 06:09:16;;;;;;;18.50;12.32;;;2.10;99.90;;;;;;5091463;27;20088;-82
2021/12/04 06:11:41;;;;;;;15.82;11.10;;;2.10;99.90;;;;;;5096548;28;20423;-82
2021/12/04 06:14:07;;;;;;;18.70;12.18;;;2.10;99.90;;;;;;5094580;28;20034;-82
2021/12/04 06:16:33;;;;;;;15.82;11.48;;;2.10;99.90;;;;;;5087464;28;20043;-82
2021/12/04 06:19:09;;;;;;;14.32;10.43;;;2.10;99.90;;;;;;5092328;28;20031;-82
2021/12/04 06:24:19;;;;;;;15.20;10.75;;;2.10;99.90;;;;;;5097101;28;20072;-87
2021/12/04 06:26:45;;;;;;;16.02;11.15;;;2.20;99.90;;;;;;5099091;28;20024;-82
2021/12/04 06:29:10;;;;;;;15.20;10.70;;;2.20;99.90;;;;;;5092003;28;20514;-82
2021/12/04 06:31:36;;;;;;;15.38;10.75;;;2.20;99.90;;;;;;5094899;28;20065;-83
2021/12/04 06:34:02;;;;;;;13.93;10.32;;;2.10;99.90;;;;;;5088075;28;20111;-83
2021/12/04 06:36:28;;;;;;;13.15;9.98;;;2.20;99.90;;;;;;5099207;28;20669;-82
2021/12/04 06:38:54;;;;;;;13.90;10.98;;;2.10;99.90;;;;;;5085775;28;20390;-82
2021/12/04 06:41:19;;;;;;;14.65;11.05;;;2.10;99.90;;;;;;5095259;28;20111;-83
2021/12/04 06:43:47;;;;;;;14.75;10.75;;;2.10;99.90;;;;;;5081018;28;20119;-83
2021/12/04 06:46:14;;;;;;;13.95;10.73;;;2.10;99.90;;;;;;5085080;28;20032;-82
2021/12/04 06:48:49;;;;;;;14.30;10.98;;;2.10;99.90;;;;;;5075416;28;20028;-82
2021/12/04 06:53:57;;;;;;;15.32;10.10;;;2.10;99.90;;;;;;5068306;28;20036;-83
2021/12/04 06:56:24;;;;;;;14.48;10.55;;;2.20;99.90;;;;;;5083403;28;20545;-82
2021/12/04 06:58:52;;;;;;;12.27;9.65;;;2.20;99.90;;;;;;5082094;28;20059;-82
2021/12/04 07:01:18;;;;;;;13.57;10.18;;;2.20;99.90;;;;;;5088742;28;20036;-82
2021/12/04 07:03:44;;;;;;;14.68;10.32;;;2.20;99.90;;;;;;5079397;28;20020;-82
2021/12/04 07:06:09;;;;;;;13.40;10.00;;;2.20;99.90;;;;;;5081503;28;20028;-83
2021/12/04 07:08:36;;;;;;;16.13;10.77;;;2.20;99.90;;;;;;5068461;28;20281;-83
2021/12/04 07:11:04;;;;;;;15.50;10.82;;;2.20;99.90;;;;;;5083458;28;20116;-82
2021/12/04 07:13:31;;;;;;;13.88;10.38;;;2.20;99.90;;;;;;5083195;28;20068;-82
2021/12/04 07:16:04;;;;;;;13.82;10.27;;;2.20;99.90;;;;;;5084096;28;20089;-82
2021/12/04 07:18:31;;;;;;;14.57;10.68;;;2.30;99.90;;;;;;5081735;28;20032;-83
2021/12/04 07:20:57;;;;;;;13.13;9.77;;;2.30;99.90;;;;;;5095926;28;20038;-82
2021/12/04 07:23:22;;;;;;;15.55;10.38;;;2.30;99.90;;;;;;5081996;28;20028;-83
2021/12/04 07:25:48;;;;;;;14.40;10.32;;;2.20;99.90;;;;;;5095544;28;20077;-83
2021/12/04 07:28:14;;;;;;;14.48;9.85;;;2.20;99.90;;;;;;5081697;28;20033;-82
2021/12/04 07:30:40;;;;;;;12.73;9.30;;;2.20;99.90;;;;;;5081019;28;20040;-83
2021/12/04 07:33:06;;;;;;;15.65;10.05;;;2.30;99.90;;;;;;5086417;28;20566;-83
2021/12/04 07:35:31;;;;;;;10.48;8.63;;;2.30;99.90;;;;;;5088524;28;20028;-83
2021/12/04 07:37:57;;;;;;;11.77;8.82;;;2.30;99.90;;;;;;5070327;28;20063;-83
2021/12/04 07:40:24;;;;;;;12.48;9.73;;;2.20;99.90;;;;;;5083579;28;20117;-83
2021/12/04 07:42:49;;;;;;;13.63;9.38;;;2.20;99.90;;;;;;5082484;28;20052;-82
2021/12/04 07:45:15;;;;;;;13.52;9.75;;;2.20;99.90;;;;;;5085087;28;20060;-83
2021/12/04 07:47:41;;;;;;;17.02;11.50;;;2.30;99.90;;;;;;5094322;28;20047;-83
2021/12/04 07:50:09;;;;;;;15.02;10.82;;;2.30;99.90;;;;;;5088233;28;20039;-83
2021/12/04 07:52:37;;;;;;;20.67;12.68;;;2.30;99.90;;;;;;5094133;28;20027;-82
2021/12/04 07:55:05;;;;;;;33.97;17.35;;;2.30;99.90;;;;;;5081730;28;20037;-83
2021/12/04 07:57:31;;;;;;;30.10;17.30;;;2.30;99.90;;;;;;5075819;28;20055;-82
2021/12/04 07:59:56;;;;;;;31.60;17.70;;;2.30;99.90;;;;;;5088953;28;20485;-83
2021/12/04 08:02:22;;;;;;;21.30;14.25;;;2.30;99.90;;;;;;5083164;28;20533;-83
2021/12/04 08:04:47;;;;;;;21.52;14.15;;;2.30;99.90;;;;;;5080771;28;20020;-83
2021/12/04 08:07:13;;;;;;;16.20;11.48;;;2.30;99.90;;;;;;5088551;28;20496;-82
2021/12/04 08:09:39;;;;;;;14.25;10.30;;;2.30;99.90;;;;;;5077338;28;20529;-82
2021/12/04 08:12:05;;;;;;;15.20;11.07;;;2.30;99.90;;;;;;5073619;28;20050;-82
2021/12/04 08:14:30;;;;;;;14.27;10.60;;;2.30;99.90;;;;;;5089011;28;20408;-81
2021/12/04 08:16:56;;;;;;;20.67;13.70;;;2.40;99.90;;;;;;5081285;28;20466;-82
2021/12/04 08:19:22;;;;;;;16.45;11.63;;;2.40;99.90;;;;;;5080601;28;20164;-82
2021/12/04 08:21:47;;;;;;;15.05;10.68;;;2.40;99.90;;;;;;5085194;28;20115;-82
2021/12/04 08:24:13;;;;;;;15.32;10.45;;;2.40;99.90;;;;;;5069909;28;20028;-82
2021/12/04 08:26:40;;;;;;;12.93;9.40;;;2.40;99.90;;;;;;5086384;28;20028;-82
2021/12/04 08:29:06;;;;;;;11.40;9.18;;;2.40;99.90;;;;;;5073599;28;20052;-81
2021/12/04 08:31:32;;;;;;;14.10;9.50;;;2.40;99.90;;;;;;5097875;28;20024;-81
2021/12/04 08:33:58;;;;;;;12.70;9.73;;;2.40;99.90;;;;;;5096273;28;20047;-82
2021/12/04 08:36:24;;;;;;;14.20;9.55;;;2.40;99.90;;;;;;5101903;27;20479;-82
2021/12/04 08:38:50;;;;;;;11.13;8.30;;;2.40;99.90;;;;;;5101856;28;20326;-82
2021/12/04 08:41:17;;;;;;;9.63;8.00;;;2.50;99.90;;;;;;5099995;27;20318;-82
2021/12/04 08:43:42;;;;;;;9.57;8.35;;;2.50;99.90;;;;;;5105917;28;20574;-82
2021/12/04 08:46:08;;;;;;;12.93;8.45;;;2.50;99.90;;;;;;5099615;28;20027;-82
2021/12/04 08:48:34;;;;;;;9.57;7.25;;;2.50;99.90;;;;;;5105134;28;20031;-82
2021/12/04 08:51:01;;;;;;;8.35;7.20;;;2.50;99.90;;;;;;5100852;28;20092;-82
2021/12/04 08:53:28;;;;;;;10.20;8.45;;;2.50;99.90;;;;;;5106054;27;20031;-82
2021/12/04 08:55:54;;;;;;;9.05;6.85;;;2.60;99.90;;;;;;5106781;28;20039;-82
2021/12/04 08:58:20;;;;;;;10.82;7.03;;;2.60;99.90;;;;;;5102517;28;20028;-82
2021/12/04 09:00:52;;;;;;;9.27;7.38;;;2.60;99.90;;;;;;5103438;28;20027;-82
2021/12/04 09:03:26;;;;;;;8.32;6.82;;;2.60;99.90;;;;;;5100959;28;20064;-82
2021/12/04 09:05:52;;;;;;;9.23;7.25;;;2.60;99.90;;;;;;5101886;28;20051;-82
2021/12/04 09:08:21;;;;;;;8.85;7.10;;;2.60;99.90;;;;;;5099723;28;20494;-82
2021/12/04 09:10:48;;;;;;;9.10;7.50;;;2.60;99.90;;;;;;5099046;28;20033;-83
2021/12/04 09:13:16;;;;;;;10.35;7.90;;;2.70;99.90;;;;;;5101243;28;20050;-82
2021/12/04 09:15:43;;;;;;;9.65;7.20;;;2.70;99.90;;;;;;5103726;28;20712;-82
2021/12/04 09:18:09;;;;;;;9.25;7.38;;;2.70;99.90;;;;;;5105425;28;20030;-82
2021/12/04 09:20:35;;;;;;;9.10;7.25;;;2.80;99.90;;;;;;5101208;28;20110;-85
2021/12/04 09:23:02;;;;;;;36.65;12.05;;;2.90;99.90;;;;;;5096686;28;20169;-83
2021/12/04 09:25:30;;;;;;;12.57;7.88;;;3.30;99.90;;;;;;5098693;28;20036;-79
2021/12/04 09:28:03;;;;;;;24.65;7.38;;;3.50;99.90;;;;;;5099160;28;20066;-79
2021/12/04 10:06:14;;;;;;;6.40;5.68;;;3.70;99.90;;;;;;5084081;28;20024;-75
2021/12/04 10:22:36;;;;;;;7.80;5.65;;;3.50;99.90;;;;;;5078219;28;20042;-75
2021/12/04 10:33:39;;;;;;;7.22;5.78;;;3.50;99.90;;;;;;5084810;28;20063;-74
2021/12/04 10:36:04;;;;;;;6.97;5.85;;;3.50;99.90;;;;;;5084047;28;20061;-74
2021/12/04 10:38:38;;;;;;;7.72;6.20;;;3.40;99.90;;;;;;5082314;28;20611;-74
2021/12/04 10:41:04;;;;;;;8.85;6.22;;;3.40;99.90;;;;;;5081053;28;20035;-74
2021/12/04 10:43:31;;;;;;;6.72;5.80;;;3.40;99.90;;;;;;5086640;28;20106;-74
2021/12/04 10:46:11;;;;;;;7.40;6.22;;;3.40;99.90;;;;;;5081879;28;20646;-74
2021/12/04 10:48:45;;;;;;;7.75;6.13;;;3.40;99.90;;;;;;5081571;28;20674;-73
2021/12/04 10:51:34;;;;;;;6.95;5.90;;;3.40;99.90;;;;;;5079119;28;20087;-73
2021/12/04 10:54:23;;;;;;;7.75;6.25;;;3.40;99.90;;;;;;5074010;28;20516;-73
2021/12/04 11:01:53;;;;;;;6.32;5.65;;;3.40;99.90;;;;;;5073553;28;20028;-73
2021/12/04 11:35:04;;;;;;;11.70;8.48;;;3.60;99.90;;;;;;5088437;28;20112;-72
2021/12/04 11:35:34;;;;;;;11.18;8.15;;;3.70;99.90;;;;;;5092595;28;20441;-73
2021/12/04 11:38:04;;;;;;;10.65;8.20;;;3.70;99.90;;;;;;5096788;28;20101;-71
2021/12/04 11:43:22;;;;;;;11.32;6.50;;;3.70;99.90;;;;;;5106263;28;20122;-72
2021/12/04 11:48:34;;;;;;;8.45;5.93;;;3.70;99.90;;;;;;5093884;28;20028;-72
2021/12/04 11:51:00;;;;;;;9.73;7.90;;;3.70;99.90;;;;;;5093171;28;20276;-72
2021/12/04 11:53:27;;;;;;;8.20;6.25;;;3.70;99.90;;;;;;5105482;28;20465;-72
2021/12/04 11:55:53;;;;;;;7.85;5.90;;;3.60;99.90;;;;;;4371502;28;10000971;-75
2021/12/04 11:58:43;;;;;;;8.00;6.00;;;3.60;99.90;;;;;;5064324;28;20072;-74
2021/12/04 12:01:28;;;;;;;6.68;5.05;;;3.60;99.90;;;;;;5071048;28;20417;-73
2021/12/04 12:03:57;;;;;;;7.55;6.00;;;3.60;99.90;;;;;;5063741;28;20518;-73
2021/12/04 12:06:34;;;;;;;8.13;6.07;;;3.60;99.90;;;;;;5068601;28;20119;-73
2021/12/04 12:09:21;;;;;;;7.80;5.93;;;3.50;99.90;;;;;;5076269;28;20032;-73
2021/12/04 12:11:54;;;;;;;9.20;7.20;;;3.50;99.90;;;;;;5054997;28;20604;-72
2021/12/04 12:14:36;;;;;;;8.90;7.10;;;3.50;99.90;;;;;;5078749;28;20032;-72
2021/12/04 12:17:03;;;;;;;8.07;6.45;;;3.50;99.90;;;;;;5074282;28;20044;-72
2021/12/04 12:19:40;;;;;;;6.80;5.80;;;3.50;99.90;;;;;;5079277;28;20393;-72
2021/12/04 12:22:22;;;;;;;7.30;5.75;;;3.50;99.90;;;;;;5070556;28;20036;-72
2021/12/04 12:32:57;;;;;;;6.80;4.70;;;3.50;99.90;;;;;;5096394;28;20467;-71
2021/12/04 12:36:18;;;;;;;6.38;4.40;;;3.50;99.90;;;;;;5104151;28;20260;-72
2021/12/04 12:38:47;;;;;;;6.47;4.78;;;3.50;99.90;;;;;;5088105;28;20517;-72
2021/12/04 12:41:38;;;;;;;5.88;4.75;;;3.50;99.90;;;;;;5099852;27;20646;-72
2021/12/04 12:44:14;;;;;;;6.55;3.92;;;3.50;99.90;;;;;;5095904;27;20041;-73
2021/12/04 12:46:52;;;;;;;6.90;4.75;;;3.60;99.90;;;;;;5101356;28;20027;-74
2021/12/04 12:49:20;;;;;;;5.13;3.92;;;3.60;99.90;;;;;;5102004;28;20465;-73
2021/12/04 12:51:57;;;;;;;5.28;3.88;;;3.60;99.90;;;;;;5102076;28;20139;-73
2021/12/04 12:54:33;;;;;;;4.95;3.97;;;3.60;99.90;;;;;;5097443;27;20040;-73
2021/12/04 12:57:11;;;;;;;4.57;3.95;;;3.60;99.90;;;;;;5096176;28;20488;-72
2021/12/04 13:13:33;;;;;;;7.25;5.60;;;3.50;99.90;;;;;;5101615;28;20047;-74
2021/12/04 13:16:05;;;;;;;;;;;3.50;99.90;;;;;;5100780;28;20119;-72
2021/12/04 13:18:34;;;;;;;6.70;4.95;;;3.50;99.90;;;;;;5098553;28;19968;-72
2021/12/04 13:21:07;;;;;;;5.43;4.15;;;3.50;99.90;;;;;;5097638;28;20024;-72
2021/12/04 13:23:33;;;;;;;6.90;4.82;;;3.60;99.90;;;;;;5093850;28;20252;-73
2021/12/04 13:26:05;;;;;;;9.35;6.40;;;3.60;99.90;;;;;;5103642;28;20035;-71
2021/12/04 13:28:34;;;;;;;8.32;5.85;;;3.60;99.90;;;;;;5099489;28;20038;-72
2021/12/04 13:31:01;;;;;;;7.00;4.90;;;3.60;99.90;;;;;;5101455;28;20111;-73
2021/12/04 13:33:28;;;;;;;8.52;6.07;;;3.60;99.90;;;;;;5091443;28;20055;-73
2021/12/04 13:35:54;;;;;;;9.35;6.90;;;3.60;99.90;;;;;;5086511;28;20506;-72
2021/12/04 13:38:23;;;;;;;9.02;6.55;;;3.60;99.90;;;;;;5077112;28;20032;-72
2021/12/04 13:40:50;;;;;;;7.45;5.15;;;3.60;99.90;;;;;;5082053;28;20457;-74
2021/12/04 13:43:17;;;;;;;15.50;7.10;;;3.70;99.90;;;;;;5090819;28;20027;-73
2021/12/04 13:45:44;;;;;;;10.15;5.68;;;3.70;99.90;;;;;;5078826;28;20408;-74
2021/12/04 13:48:10;;;;;;;6.57;4.80;;;3.70;99.90;;;;;;5079333;28;20039;-74
2021/12/04 13:53:14;;;;;;;6.30;4.95;;;3.70;99.90;;;;;;5092046;28;20065;-73
2021/12/04 13:55:45;;;;;;;5.88;4.70;;;3.70;99.90;;;;;;5076888;28;20089;-72
2021/12/04 13:58:11;;;;;;;5.90;4.25;;;3.70;99.90;;;;;;5086009;28;20431;-73
2021/12/04 14:00:37;;;;;;;6.05;4.35;;;3.70;99.90;;;;;;5085157;28;20015;-73
2021/12/04 14:03:04;;;;;;;4.80;3.97;;;3.70;99.90;;;;;;5083582;28;20565;-73
2021/12/04 14:05:30;;;;;;;3.92;3.50;;;3.70;99.90;;;;;;5083026;28;20351;-73
2021/12/04 14:07:58;;;;;;;6.18;4.40;;;3.70;99.90;;;;;;5100048;28;20036;-75
2021/12/04 14:10:44;;;;;;;4.40;3.40;;;3.80;99.90;;;;;;5091721;28;20029;-74
2021/12/04 14:13:12;;;;;;;4.13;2.90;;;3.80;99.90;;;;;;5072064;28;20085;-73
2021/12/04 14:15:44;;;;;;;3.55;2.75;;;3.80;99.90;;;;;;5082015;28;20051;-74
2021/12/04 14:18:22;;;;;;;3.92;2.70;;;3.80;99.90;;;;;;5082679;28;20097;-73
2021/12/04 14:20:54;;;;;;;3.67;2.70;;;3.80;99.90;;;;;;5085157;28;20051;-74
2021/12/04 14:23:23;;;;;;;3.88;2.80;;;3.90;99.90;;;;;;5083607;28;20489;-76
2021/12/04 14:25:54;;;;;;;3.45;2.72;;;4.00;99.90;;;;;;5091224;28;20028;-78
2021/12/04 14:28:22;;;;;;;3.20;2.90;;;4.00;99.90;;;;;;5077561;28;20024;-77
2021/12/04 14:30:49;;;;;;;2.80;2.50;;;4.00;99.90;;;;;;5087656;28;20031;-77
2021/12/04 14:33:20;;;;;;;4.28;3.25;;;4.00;99.90;;;;;;5094963;28;20065;-76
2021/12/04 14:35:48;;;;;;;5.38;3.80;;;3.90;99.90;;;;;;5104608;28;20073;-75
2021/12/04 14:38:17;;;;;;;4.07;3.40;;;3.90;99.90;;;;;;5103998;28;20059;-78
2021/12/04 14:40:46;;;;;;;4.38;3.30;;;3.90;99.90;;;;;;5094483;28;20095;-75
2021/12/04 14:43:15;;;;;;;4.03;3.13;;;3.90;99.90;;;;;;5093543;28;20038;-75
2021/12/04 14:45:44;;;;;;;4.03;3.40;;;3.90;99.90;;;;;;5095644;28;20092;-72
2021/12/04 14:48:19;;;;;;;5.72;3.50;;;3.90;99.90;;;;;;5099243;28;20056;-71
2021/12/04 14:50:49;;;;;;;5.13;3.80;;;3.80;99.90;;;;;;5098377;28;20019;-72
2021/12/04 14:53:18;;;;;;;4.75;3.50;;;3.80;99.90;;;;;;5101288;28;20027;-73
2021/12/04 14:55:46;;;;;;;4.70;3.40;;;3.80;99.90;;;;;;5095382;28;20035;-73
2021/12/04 14:58:19;;;;;;;4.32;2.92;;;3.80;99.90;;;;;;5098341;28;20057;-71
2021/12/04 15:00:58;;;;;;;2.85;2.53;;;3.80;99.90;;;;;;5101363;28;20038;-72
2021/12/04 15:03:52;;;;;;;4.47;3.30;;;3.80;99.90;;;;;;5095659;28;20039;-72
2021/12/04 15:06:20;;;;;;;5.47;3.97;;;3.80;99.90;;;;;;5089258;28;20074;-72
2021/12/04 15:08:49;;;;;;;7.22;4.07;;;3.80;99.90;;;;;;5090638;28;20773;-72
2021/12/04 15:11:21;;;;;;;6.57;4.07;;;3.80;99.90;;;;;;5101006;28;20034;-71
2021/12/04 15:13:53;;;;;;;4.20;3.40;;;3.80;99.90;;;;;;5097125;28;20024;-73
2021/12/04 15:16:29;;;;;;;6.40;4.35;;;3.80;99.90;;;;;;5096317;28;20043;-74
2021/12/04 15:19:17;;;;;;;5.55;4.63;;;3.80;99.90;;;;;;5102183;28;20039;-73
2021/12/04 15:21:52;;;;;;;7.15;4.78;;;3.70;99.90;;;;;;5089772;28;20024;-74
2021/12/04 15:24:23;;;;;;;7.50;4.90;;;3.70;99.90;;;;;;5099250;28;20051;-73
2021/12/04 15:26:53;;;;;;;6.25;4.60;;;3.80;99.90;;;;;;5096142;28;20035;-74
2021/12/04 15:29:22;;;;;;;13.90;7.65;;;3.80;99.90;;;;;;5100633;28;20036;-73
2021/12/04 15:31:50;;;;;;;14.73;8.35;;;3.80;99.90;;;;;;5088169;28;20032;-73
2021/12/04 15:34:16;;;;;;;21.88;11.15;;;3.70;99.90;;;;;;5089654;28;20566;-73
2021/12/04 15:36:46;;;;;;;13.55;8.18;;;3.70;99.90;;;;;;5095855;28;20410;-73
2021/12/04 15:39:27;;;;;;;12.75;7.63;;;3.70;99.90;;;;;;5090045;28;20035;-73
2021/12/04 15:42:35;;;;;;;12.15;7.82;;;3.70;99.90;;;;;;5099158;28;20028;-73
2021/12/04 15:47:38;;;;;;;13.75;9.73;;;3.60;99.90;;;;;;5099331;28;20019;-72
2021/12/04 15:50:49;;;;;;;13.90;10.50;;;3.60;99.90;;;;;;5091652;28;20485;-72
2021/12/04 15:53:15;;;;;;;13.57;9.00;;;3.60;99.90;;;;;;5095615;28;20354;-72
2021/12/04 15:55:42;;;;;;;14.52;9.60;;;3.50;99.90;;;;;;5092155;28;20366;-72
2021/12/04 15:58:10;;;;;;;11.63;8.30;;;3.50;99.90;;;;;;5100164;28;20123;-71
2021/12/04 16:00:39;;;;;;;13.27;8.35;;;3.50;99.90;;;;;;5100236;28;20020;-76
2021/12/04 16:03:10;;;;;;;15.05;8.93;;;3.40;99.90;;;;;;5092168;28;20024;-73
2021/12/04 16:05:38;;;;;;;11.50;8.00;;;3.40;99.90;;;;;;5096870;28;20425;-73
2021/12/04 16:08:09;;;;;;;13.00;8.02;;;3.40;99.90;;;;;;5093606;28;20107;-74
2021/12/04 16:10:36;;;;;;;11.85;8.15;;;3.40;99.90;;;;;;5096700;28;20485;-75
2021/12/04 16:13:04;;;;;;;12.75;8.57;;;3.40;99.90;;;;;;5101379;28;20088;-74